AUA57C LIRN-LOWW
Flight info
| Callsign | AUA57C |
|---|---|
| Flight time | N/A |
| Altitude | 38000 |
| Route | BEDPI DCT MOLUX DCT VAPUP DCT NIVES DCT OBUTI OBUTI2W |
| Aircraft | A20N/M-SDE2E3FGHIJ1RWXY/LB1 |
Departure
| Time | N/A |
|---|---|
| Airport | Naples International Airport (LIRN) |
Arrival
| Time | 2026-05-06 08:18 |
|---|---|
| Airport | Vienna International Airport (LOWW) |
| Time | Latitude | Longitude | Altitude | Speed | Heading |
|---|---|---|---|---|---|
| 2026-05-06 07:56 | 40.87812 | 14.28043 | 297 ft | 0 kts | 142° |
| 2026-05-06 07:57 | 47.77376 | 16.25130 | 12827 ft | 353 kts | 49° |
| 2026-05-06 07:57 | 47.78737 | 16.28191 | 12854 ft | 353 kts | 61° |
| 2026-05-06 07:57 | 47.79928 | 16.31384 | 12851 ft | 352 kts | 62° |
| 2026-05-06 07:58 | 47.81094 | 16.34530 | 12839 ft | 352 kts | 61° |
| 2026-05-06 07:58 | 47.82305 | 16.37736 | 12848 ft | 352 kts | 61° |
| 2026-05-06 07:58 | 47.83508 | 16.40863 | 12851 ft | 353 kts | 60° |
| 2026-05-06 07:58 | 47.84741 | 16.44039 | 12849 ft | 352 kts | 60° |
| 2026-05-06 07:59 | 47.85963 | 16.47179 | 12846 ft | 352 kts | 60° |
| 2026-05-06 07:59 | 47.87193 | 16.50334 | 12842 ft | 352 kts | 60° |
| 2026-05-06 07:59 | 47.88431 | 16.53513 | 12845 ft | 353 kts | 60° |
| 2026-05-06 07:59 | 47.89656 | 16.56665 | 12847 ft | 353 kts | 60° |
| 2026-05-06 08:00 | 47.90886 | 16.59832 | 12850 ft | 353 kts | 60° |
| 2026-05-06 08:00 | 47.92106 | 16.62978 | 12845 ft | 353 kts | 60° |
| 2026-05-06 08:00 | 47.93320 | 16.66113 | 12848 ft | 352 kts | 61° |
| 2026-05-06 08:00 | 47.94544 | 16.69281 | 12847 ft | 351 kts | 61° |
| 2026-05-06 08:01 | 47.95765 | 16.72447 | 12852 ft | 352 kts | 61° |
| 2026-05-06 08:01 | 47.96971 | 16.75577 | 12861 ft | 351 kts | 61° |
| 2026-05-06 08:01 | 47.98286 | 16.78627 | 12848 ft | 351 kts | 48° |
| 2026-05-06 08:01 | 48.00252 | 16.80737 | 12850 ft | 348 kts | 19° |
| 2026-05-06 08:02 | 48.02613 | 16.81284 | 12852 ft | 341 kts | 351° |
| 2026-05-06 08:02 | 48.04837 | 16.80284 | 12860 ft | 334 kts | 329° |
| 2026-05-06 08:02 | 48.06853 | 16.78609 | 12859 ft | 333 kts | 327° |
| 2026-05-06 08:02 | 48.08871 | 16.76909 | 12865 ft | 333 kts | 328° |
| 2026-05-06 08:03 | 48.10904 | 16.75262 | 12857 ft | 333 kts | 328° |
| 2026-05-06 08:03 | 48.12941 | 16.73658 | 12853 ft | 334 kts | 329° |
| 2026-05-06 08:03 | 48.15006 | 16.72057 | 12852 ft | 334 kts | 329° |
| 2026-05-06 08:03 | 48.17063 | 16.70469 | 12860 ft | 334 kts | 329° |
| 2026-05-06 08:04 | 48.19112 | 16.68885 | 12862 ft | 334 kts | 329° |
| 2026-05-06 08:04 | 48.21201 | 16.67327 | 12852 ft | 335 kts | 332° |
| 2026-05-06 08:04 | 48.23380 | 16.66024 | 12845 ft | 337 kts | 338° |
| 2026-05-06 08:04 | 48.25610 | 16.64999 | 12822 ft | 338 kts | 341° |
| 2026-05-06 08:05 | 48.27878 | 16.64049 | 12462 ft | 341 kts | 341° |
| 2026-05-06 08:05 | 48.30168 | 16.63102 | 11988 ft | 341 kts | 342° |
| 2026-05-06 08:05 | 48.32429 | 16.62163 | 11544 ft | 339 kts | 342° |
| 2026-05-06 08:05 | 48.34708 | 16.61208 | 11109 ft | 338 kts | 342° |
| 2026-05-06 08:06 | 48.36941 | 16.60268 | 10693 ft | 336 kts | 342° |
| 2026-05-06 08:06 | 48.39166 | 16.59330 | 10418 ft | 328 kts | 342° |
| 2026-05-06 08:06 | 48.41349 | 16.58412 | 10264 ft | 316 kts | 342° |
| 2026-05-06 08:06 | 48.43415 | 16.57541 | 10159 ft | 304 kts | 342° |
| 2026-05-06 08:07 | 48.45391 | 16.56705 | 10053 ft | 292 kts | 342° |
| 2026-05-06 08:07 | 48.47305 | 16.55896 | 9856 ft | 284 kts | 342° |
| 2026-05-06 08:07 | 48.49209 | 16.55086 | 9520 ft | 282 kts | 342° |
| 2026-05-06 08:07 | 48.51086 | 16.54282 | 9195 ft | 279 kts | 340° |
| 2026-05-06 08:08 | 48.52758 | 16.52952 | 8825 ft | 272 kts | 311° |
| 2026-05-06 08:08 | 48.53645 | 16.50541 | 8500 ft | 261 kts | 277° |
| 2026-05-06 08:08 | 48.53555 | 16.47892 | 8194 ft | 252 kts | 252° |
| 2026-05-06 08:08 | 48.53023 | 16.45429 | 7894 ft | 249 kts | 248° |
| 2026-05-06 08:09 | 48.52137 | 16.43243 | 7549 ft | 245 kts | 220° |
| 2026-05-06 08:09 | 48.50666 | 16.42042 | 7232 ft | 242 kts | 193° |
| 2026-05-06 08:09 | 48.49002 | 16.42043 | 6917 ft | 241 kts | 167° |
| 2026-05-06 08:09 | 48.47404 | 16.42745 | 6632 ft | 240 kts | 165° |
| 2026-05-06 08:10 | 48.45816 | 16.43458 | 6345 ft | 238 kts | 165° |
| 2026-05-06 08:10 | 48.44243 | 16.44147 | 6057 ft | 236 kts | 165° |
| 2026-05-06 08:10 | 48.42664 | 16.44821 | 5779 ft | 233 kts | 165° |
| 2026-05-06 08:10 | 48.41106 | 16.45472 | 5499 ft | 231 kts | 165° |
| 2026-05-06 08:11 | 48.39563 | 16.46116 | 5222 ft | 229 kts | 165° |
| 2026-05-06 08:11 | 48.38043 | 16.46748 | 4987 ft | 224 kts | 165° |
| 2026-05-06 08:11 | 48.36569 | 16.47361 | 4954 ft | 216 kts | 165° |
| 2026-05-06 08:11 | 48.36344 | 16.47456 | 4951 ft | 214 kts | 165° |
| 2026-05-06 08:12 | 48.35276 | 16.47910 | 4939 ft | 204 kts | 164° |
| 2026-05-06 08:12 | 48.33952 | 16.48487 | 4942 ft | 195 kts | 163° |
| 2026-05-06 08:12 | 48.32678 | 16.49052 | 4745 ft | 188 kts | 164° |
| 2026-05-06 08:12 | 48.31448 | 16.49591 | 4475 ft | 184 kts | 164° |
| 2026-05-06 08:13 | 48.30233 | 16.50113 | 4237 ft | 175 kts | 164° |
| 2026-05-06 08:13 | 48.29111 | 16.50590 | 3977 ft | 162 kts | 165° |
| 2026-05-06 08:13 | 48.28069 | 16.51031 | 3743 ft | 149 kts | 165° |
| 2026-05-06 08:13 | 48.27110 | 16.51435 | 3532 ft | 139 kts | 165° |
| 2026-05-06 08:14 | 48.26182 | 16.51825 | 3356 ft | 138 kts | 165° |
| 2026-05-06 08:14 | 48.25261 | 16.52213 | 3190 ft | 137 kts | 165° |
| 2026-05-06 08:14 | 48.24339 | 16.52598 | 3023 ft | 137 kts | 164° |
| 2026-05-06 08:14 | 48.23423 | 16.52982 | 2832 ft | 137 kts | 164° |
| 2026-05-06 08:15 | 48.22512 | 16.53338 | 2634 ft | 136 kts | 166° |
| 2026-05-06 08:15 | 48.21603 | 16.53704 | 2482 ft | 136 kts | 164° |
| 2026-05-06 08:15 | 48.20690 | 16.54113 | 2336 ft | 136 kts | 161° |
| 2026-05-06 08:15 | 48.19795 | 16.54525 | 2165 ft | 135 kts | 163° |
| 2026-05-06 08:16 | 48.18884 | 16.54925 | 1990 ft | 135 kts | 164° |
| 2026-05-06 08:16 | 48.17986 | 16.55320 | 1793 ft | 135 kts | 163° |
| 2026-05-06 08:16 | 48.17085 | 16.55646 | 1603 ft | 134 kts | 165° |
| 2026-05-06 08:16 | 48.16176 | 16.56007 | 1453 ft | 134 kts | 165° |
| 2026-05-06 08:17 | 48.15295 | 16.56410 | 1284 ft | 134 kts | 161° |
| 2026-05-06 08:17 | 48.14396 | 16.56814 | 1103 ft | 133 kts | 165° |
| 2026-05-06 08:17 | 48.13500 | 16.57176 | 936 ft | 134 kts | 165° |
| 2026-05-06 08:17 | 48.12601 | 16.57553 | 767 ft | 134 kts | 163° |
| 2026-05-06 08:18 | 48.11705 | 16.57940 | 614 ft | 131 kts | 166° |
| 2026-05-06 08:18 | 48.10928 | 16.58264 | 608 ft | 94 kts | 165° |
| 2026-05-06 08:18 | 48.10458 | 16.58459 | 608 ft | 49 kts | 166° |
| 2026-05-06 08:18 | 48.10149 | 16.58591 | 608 ft | 44 kts | 168° |
| 2026-05-06 08:19 | 48.09924 | 16.58612 | 608 ft | 19 kts | 186° |
| 2026-05-06 08:19 | 48.09801 | 16.58588 | 608 ft | 17 kts | 187° |
| 2026-05-06 08:19 | 48.09708 | 16.58565 | 608 ft | 12 kts | 193° |
| 2026-05-06 08:19 | 48.09639 | 16.58489 | 608 ft | 13 kts | 251° |
| 2026-05-06 08:20 | 48.09676 | 16.58374 | 608 ft | 13 kts | 337° |
| 2026-05-06 08:20 | 48.09769 | 16.58330 | 608 ft | 14 kts | 343° |
| 2026-05-06 08:20 | 48.09868 | 16.58290 | 608 ft | 13 kts | 345° |
| 2026-05-06 08:20 | 48.09963 | 16.58251 | 608 ft | 14 kts | 345° |
| 2026-05-06 08:21 | 48.10044 | 16.58216 | 608 ft | 12 kts | 344° |
| 2026-05-06 08:21 | 48.10128 | 16.58179 | 608 ft | 13 kts | 344° |
| 2026-05-06 08:21 | 48.10199 | 16.58150 | 608 ft | 10 kts | 345° |
| 2026-05-06 08:21 | 48.10273 | 16.58119 | 608 ft | 11 kts | 345° |
| 2026-05-06 08:22 | 48.10353 | 16.58086 | 608 ft | 12 kts | 345° |
| 2026-05-06 08:22 | 48.10440 | 16.58049 | 608 ft | 13 kts | 344° |
| 2026-05-06 08:22 | 48.10524 | 16.58014 | 608 ft | 11 kts | 345° |
| 2026-05-06 08:22 | 48.10581 | 16.57990 | 608 ft | 8 kts | 344° |
| 2026-05-06 08:23 | 48.10642 | 16.57964 | 608 ft | 9 kts | 345° |
| 2026-05-06 08:23 | 48.10712 | 16.57934 | 608 ft | 11 kts | 345° |
| 2026-05-06 08:23 | 48.10790 | 16.57902 | 608 ft | 12 kts | 344° |
| 2026-05-06 08:23 | 48.10875 | 16.57865 | 608 ft | 13 kts | 344° |
| 2026-05-06 08:24 | 48.10966 | 16.57826 | 608 ft | 14 kts | 344° |
| 2026-05-06 08:24 | 48.11062 | 16.57786 | 608 ft | 13 kts | 345° |
| 2026-05-06 08:24 | 48.11145 | 16.57729 | 608 ft | 13 kts | 317° |
| 2026-05-06 08:24 | 48.11190 | 16.57618 | 608 ft | 11 kts | 294° |
| 2026-05-06 08:25 | 48.11224 | 16.57509 | 608 ft | 11 kts | 296° |
| 2026-05-06 08:25 | 48.11245 | 16.57445 | 608 ft | 11 kts | 296° |
| 2026-05-06 08:25 | 48.11280 | 16.57340 | 608 ft | 11 kts | 297° |
| 2026-05-06 08:25 | 48.11314 | 16.57237 | 608 ft | 11 kts | 296° |
| 2026-05-06 08:26 | 48.11346 | 16.57134 | 608 ft | 10 kts | 296° |
| 2026-05-06 08:26 | 48.11379 | 16.57032 | 608 ft | 10 kts | 296° |
| 2026-05-06 08:26 | 48.11413 | 16.56931 | 608 ft | 10 kts | 296° |
| 2026-05-06 08:26 | 48.11445 | 16.56831 | 608 ft | 10 kts | 296° |
| 2026-05-06 08:27 | 48.11478 | 16.56732 | 608 ft | 10 kts | 297° |
| 2026-05-06 08:27 | 48.11510 | 16.56636 | 608 ft | 10 kts | 296° |
| 2026-05-06 08:27 | 48.11542 | 16.56536 | 608 ft | 10 kts | 296° |
| 2026-05-06 08:27 | 48.11573 | 16.56439 | 608 ft | 10 kts | 296° |
| 2026-05-06 08:28 | 48.11604 | 16.56343 | 608 ft | 10 kts | 295° |
| 2026-05-06 08:28 | 48.11646 | 16.56260 | 608 ft | 10 kts | 340° |
| 2026-05-06 08:28 | 48.11714 | 16.56282 | 608 ft | 10 kts | 24° |
| 2026-05-06 08:28 | 48.11753 | 16.56360 | 608 ft | 10 kts | 97° |
| 2026-05-06 08:29 | 48.11733 | 16.56443 | 608 ft | 7 kts | 115° |
| 2026-05-06 08:29 | 48.11713 | 16.56508 | 608 ft | 5 kts | 116° |
| 2026-05-06 08:29 | 48.11721 | 16.56554 | 608 ft | 4 kts | 38° |
| 2026-05-06 08:29 | 48.11751 | 16.56578 | 608 ft | 5 kts | 27° |
| 2026-05-06 08:30 | 48.11776 | 16.56597 | 608 ft | 2 kts | 26° |
| 2026-05-06 08:30 | 48.11778 | 16.56598 | 608 ft | 0 kts | 26° |